createdAt,value
2022-11-12T00:01:08.073Z,96685.91
2022-11-12T00:03:35.927Z,96677.13
2022-11-12T00:06:04.217Z,96680.06
2022-11-12T00:08:32.046Z,96649.88
2022-11-12T00:11:01.251Z,96662.56
2022-11-12T00:13:29.070Z,96674.69
2022-11-12T00:15:56.918Z,96667.72
2022-11-12T00:18:25.058Z,96666.09
2022-11-12T00:20:53.158Z,96666.09
2022-11-12T00:23:21.004Z,96621.25
2022-11-12T00:25:48.866Z,96668.81
2022-11-12T00:28:18.071Z,96676.34
2022-11-12T00:30:45.886Z,96671.50
2022-11-12T00:33:13.711Z,96668.22
2022-11-12T00:35:41.486Z,96669.56
2022-11-12T00:38:09.258Z,96664.72
2022-11-12T00:40:37.101Z,96669.91
2022-11-12T00:43:04.879Z,96682.34
2022-11-12T00:45:34.159Z,96669.56
2022-11-12T00:48:01.991Z,96676.47
2022-11-12T00:50:29.819Z,96675.03
2022-11-12T00:52:57.663Z,96672.66
2022-11-12T00:55:25.496Z,96668.84
2022-11-12T00:57:53.331Z,96655.47
2022-11-12T01:00:21.468Z,96645.09
2022-11-12T01:02:51.523Z,96645.44
2022-11-12T01:05:20.413Z,96636.31
2022-11-12T01:07:54.696Z,96632.06
2022-11-12T01:10:23.976Z,96649.16
2022-11-12T01:12:51.864Z,96654.22
2022-11-12T01:15:19.882Z,96645.84
2022-11-12T01:17:47.664Z,96646.31
2022-11-12T01:20:17.340Z,96647.13
2022-11-12T01:22:45.166Z,96639.31
2022-11-12T01:25:12.972Z,96643.09
2022-11-12T01:27:40.834Z,96654.31
2022-11-12T01:30:09.788Z,96651.91
2022-11-12T01:32:38.050Z,96641.38
2022-11-12T01:35:06.757Z,96629.59
2022-11-12T01:37:35.961Z,96638.41
2022-11-12T01:40:03.803Z,96636.00
2022-11-12T01:42:33.843Z,96629.81
2022-11-12T01:45:01.641Z,96622.72
2022-11-12T01:47:32.201Z,96628.31
2022-11-12T01:50:06.239Z,96634.16
2022-11-12T01:52:41.743Z,96634.16
2022-11-12T01:55:14.874Z,96644.19
2022-11-12T01:57:48.487Z,96631.06
2022-11-12T02:00:18.531Z,96629.47
2022-11-12T02:02:50.874Z,96615.75
2022-11-12T02:05:19.961Z,96610.13
2022-11-12T02:07:50.727Z,96625.69
2022-11-12T02:10:18.679Z,96619.81
2022-11-12T02:13:05.045Z,96627.63
2022-11-12T02:15:33.044Z,96624.22
2022-11-12T02:18:00.895Z,96632.88
2022-11-12T02:20:28.705Z,96635.31
2022-11-12T02:22:57.915Z,96640.13
2022-11-12T02:25:27.672Z,96626.00
2022-11-12T02:27:57.238Z,96596.69
2022-11-12T02:30:34.158Z,96626.50
2022-11-12T02:33:02.154Z,96637.78
2022-11-12T02:35:29.943Z,96633.47
2022-11-12T02:37:59.377Z,96633.25
2022-11-12T02:40:27.614Z,96569.50
2022-11-12T02:42:55.459Z,96591.66
2022-11-12T02:45:23.880Z,96625.09
2022-11-12T02:47:51.783Z,96609.78
2022-11-12T02:50:20.021Z,96611.09
2022-11-12T02:52:47.909Z,96617.59
2022-11-12T02:55:17.170Z,96613.78
2022-11-12T02:57:45.211Z,96619.75
2022-11-12T03:00:15.306Z,96604.53
2022-11-12T03:02:43.642Z,96630.28
2022-11-12T03:05:12.209Z,96618.91
2022-11-12T03:07:40.277Z,96639.44
2022-11-12T03:10:09.480Z,96646.41
2022-11-12T03:12:38.681Z,96633.00
2022-11-12T03:15:07.461Z,96629.50
2022-11-12T03:17:35.731Z,96559.59
2022-11-12T03:20:03.720Z,96631.22
2022-11-12T03:22:31.605Z,96639.06
2022-11-12T03:24:59.417Z,96628.88
2022-11-12T03:27:27.251Z,96617.97
2022-11-12T03:29:56.610Z,96636.44
2022-11-12T03:32:24.719Z,96620.91
2022-11-12T03:34:55.474Z,96632.25
2022-11-12T03:37:23.668Z,96629.38
2022-11-12T03:39:51.479Z,96637.47
2022-11-12T03:42:19.276Z,96629.97
2022-11-12T03:44:47.088Z,96624.56
2022-11-12T03:47:16.267Z,96634.16
2022-11-12T03:49:44.051Z,96635.78
2022-11-12T03:52:11.856Z,96630.16
2022-11-12T03:54:39.682Z,96637.91
2022-11-12T03:57:07.522Z,96629.13
2022-11-12T03:59:35.398Z,96625.44
2022-11-12T04:02:03.270Z,96633.78
2022-11-12T04:04:46.394Z,96624.75
2022-11-12T04:07:31.555Z,96632.47
2022-11-12T04:09:59.384Z,96611.84
2022-11-12T04:12:56.182Z,96537.09
2022-11-12T04:15:24.044Z,96615.66
2022-11-12T04:18:09.385Z,96617.81
2022-11-12T04:21:01.348Z,96623.66
2022-11-12T04:23:29.183Z,96609.97
2022-11-12T04:26:14.215Z,96604.91
2022-11-12T04:29:02.073Z,96615.69
2022-11-12T04:31:28.879Z,96613.53
2022-11-12T04:34:16.835Z,96617.88
2022-11-12T04:36:46.061Z,96606.63
2022-11-12T04:39:14.178Z,96598.63
2022-11-12T04:42:14.007Z,96615.72
2022-11-12T04:44:59.319Z,96620.31
2022-11-12T04:47:27.375Z,96611.41
2022-11-12T04:49:55.216Z,96607.69
2022-11-12T04:52:24.448Z,96619.25
2022-11-12T04:54:53.287Z,96597.00
2022-11-12T04:57:21.464Z,96620.22
2022-11-12T04:59:49.348Z,96630.38
2022-11-12T05:02:17.715Z,96607.13
2022-11-12T05:04:45.786Z,96629.88
2022-11-12T05:07:13.968Z,96616.03
2022-11-12T05:09:43.919Z,96621.63
2022-11-12T05:12:11.782Z,96639.94
2022-11-12T05:14:39.605Z,96636.72
2022-11-12T05:17:07.760Z,96641.56
2022-11-12T05:19:36.198Z,96658.66
2022-11-12T05:22:05.858Z,96643.06
2022-11-12T05:24:41.937Z,96640.94
2022-11-12T05:27:13.798Z,96649.22
2022-11-12T05:29:42.445Z,96649.72
2022-11-12T05:32:12.957Z,96653.72
2022-11-12T05:34:41.132Z,96648.88
2022-11-12T05:37:10.371Z,96608.19
2022-11-12T05:39:38.359Z,96649.25
2022-11-12T05:42:12.940Z,96655.34
2022-11-12T05:44:43.252Z,96663.59
2022-11-12T05:47:11.100Z,96657.59
2022-11-12T05:49:38.888Z,96654.06
2022-11-12T05:52:06.734Z,96648.19
2022-11-12T05:54:34.596Z,96664.56
2022-11-12T05:57:02.416Z,96651.78
2022-11-12T05:59:30.223Z,96659.16
2022-11-12T06:01:59.537Z,96658.28
2022-11-12T06:04:27.890Z,96669.53
2022-11-12T06:06:55.736Z,96666.00
2022-11-12T06:09:23.667Z,96666.75
2022-11-12T06:11:51.543Z,96673.34
2022-11-12T06:14:19.446Z,96529.53
2022-11-12T06:16:47.251Z,96676.13
2022-11-12T06:19:16.470Z,96672.00
2022-11-12T06:21:44.279Z,96648.66
2022-11-12T06:24:12.580Z,96669.78
2022-11-12T06:26:40.399Z,96667.31
2022-11-12T06:29:08.190Z,96598.97
2022-11-12T06:31:35.999Z,96664.00
2022-11-12T06:34:04.076Z,96655.44
2022-11-12T06:36:33.443Z,96660.06
2022-11-12T06:39:01.250Z,96620.91
2022-11-12T06:41:29.056Z,96679.34
2022-11-12T06:43:56.880Z,96679.94
2022-11-12T06:46:24.712Z,96678.00
2022-11-12T06:48:52.546Z,96687.84
2022-11-12T06:51:22.336Z,96680.72
2022-11-12T06:53:51.927Z,96682.22
2022-11-12T06:56:19.816Z,96681.44
2022-11-12T06:58:49.193Z,96665.00
2022-11-12T07:01:19.056Z,96681.34
2022-11-12T07:03:46.873Z,96678.53
2022-11-12T07:06:19.079Z,96673.56
2022-11-12T07:08:49.029Z,96670.38
2022-11-12T07:11:19.750Z,96666.94
2022-11-12T07:13:48.369Z,96685.13
2022-11-12T07:16:18.651Z,96678.97
2022-11-12T07:18:48.017Z,96646.94
2022-11-12T07:21:18.443Z,96672.91
2022-11-12T07:23:47.528Z,96673.00
2022-11-12T07:26:18.116Z,96669.63
2022-11-12T07:28:48.002Z,96668.09
2022-11-12T07:31:17.354Z,96673.81
2022-11-12T07:33:45.972Z,96678.00
2022-11-12T07:36:14.961Z,96676.59
2022-11-12T07:38:43.935Z,96639.41
2022-11-12T07:41:14.168Z,96611.59
2022-11-12T07:43:43.871Z,96673.97
2022-11-12T07:46:16.003Z,96670.38
2022-11-12T07:48:44.644Z,96619.78
2022-11-12T07:51:14.771Z,96673.50
2022-11-12T07:53:43.153Z,96652.81
2022-11-12T07:56:13.185Z,96661.50
2022-11-12T07:58:41.331Z,96683.41
2022-11-12T08:01:10.701Z,96678.72
2022-11-12T08:03:39.956Z,96678.41
2022-11-12T08:06:08.492Z,96683.22
2022-11-12T08:08:36.352Z,96675.63
2022-11-12T08:11:04.347Z,96690.59
2022-11-12T08:13:32.172Z,96684.19
2022-11-12T08:16:00.247Z,96656.81
2022-11-12T08:18:28.613Z,96693.09
2022-11-12T08:21:02.097Z,96680.91
2022-11-12T08:23:30.223Z,96636.13
2022-11-12T08:26:01.535Z,96686.63
2022-11-12T08:28:30.475Z,96687.81
2022-11-12T08:30:59.051Z,96695.91
2022-11-12T08:33:26.857Z,96690.19
2022-11-12T08:35:54.709Z,96695.22
2022-11-12T08:38:24.173Z,96691.09
2022-11-12T08:40:52.242Z,96691.88
2022-11-12T08:43:20.062Z,96697.19
2022-11-12T08:45:48.679Z,96696.22
2022-11-12T08:48:16.900Z,96674.78
2022-11-12T08:50:44.749Z,96700.81
2022-11-12T08:53:14.881Z,96707.84
2022-11-12T08:55:44.102Z,96699.25
2022-11-12T08:58:12.009Z,96641.66
2022-11-12T09:00:41.720Z,96650.72
2022-11-12T09:03:15.400Z,96700.59
2022-11-12T09:05:43.798Z,96697.53
2022-11-12T09:08:13.464Z,96684.34
2022-11-12T09:10:42.814Z,96485.25
2022-11-12T09:13:10.982Z,96686.53
2022-11-12T09:15:39.202Z,96686.22
2022-11-12T09:18:08.510Z,96685.66
2022-11-12T09:20:36.379Z,96684.28
2022-11-12T09:23:08.010Z,96690.53
2022-11-12T09:25:36.558Z,96683.91
2022-11-12T09:28:09.946Z,96693.81
2022-11-12T09:30:38.813Z,96701.06
2022-11-12T09:33:06.684Z,96549.72
2022-11-12T09:35:35.235Z,96692.84
2022-11-12T09:38:03.148Z,96694.44
2022-11-12T09:40:42.613Z,96647.31
2022-11-12T09:43:19.294Z,96686.63
2022-11-12T09:46:06.363Z,96703.84
2022-11-12T09:48:39.335Z,96686.03
2022-11-12T09:51:13.227Z,96696.22
2022-11-12T09:53:47.075Z,96650.44
2022-11-12T09:56:17.683Z,96697.13
2022-11-12T09:58:46.923Z,96637.00
2022-11-12T10:01:18.103Z,96692.31
2022-11-12T10:03:55.714Z,96685.00
2022-11-12T10:06:26.018Z,96675.44
2022-11-12T10:08:59.947Z,96699.00
2022-11-12T10:12:09.768Z,96686.72
2022-11-12T10:14:59.902Z,96698.19
2022-11-12T10:17:36.983Z,96692.22
2022-11-12T10:20:15.544Z,96696.22
2022-11-12T10:23:07.835Z,96686.41
2022-11-12T10:25:37.249Z,96655.03
2022-11-12T10:28:17.978Z,96697.22
2022-11-12T10:30:48.125Z,96690.19
2022-11-12T10:33:16.987Z,96698.09
2022-11-12T10:35:44.870Z,96686.09
2022-11-12T10:38:16.804Z,96695.59
2022-11-12T10:40:44.879Z,96676.50
2022-11-12T10:43:23.095Z,96658.34
2022-11-12T10:45:52.928Z,96694.22
2022-11-12T10:48:27.238Z,96698.50
2022-11-12T10:50:56.052Z,96695.81
2022-11-12T10:53:35.563Z,96692.34
2022-11-12T10:56:05.274Z,96690.72
2022-11-12T10:58:33.520Z,96696.97
2022-11-12T11:01:05.131Z,96684.34
2022-11-12T11:03:36.672Z,96691.06
2022-11-12T11:06:06.650Z,96684.94
2022-11-12T11:08:38.054Z,96643.88
2022-11-12T11:11:22.495Z,96690.19
2022-11-12T11:13:55.402Z,96685.59
2022-11-12T11:16:27.039Z,96677.00
2022-11-12T11:18:58.145Z,96635.91
2022-11-12T11:21:59.736Z,96676.91
2022-11-12T11:24:40.553Z,96687.22
2022-11-12T11:27:19.896Z,96685.66
2022-11-12T11:30:04.411Z,96675.63
2022-11-12T11:33:14.791Z,96638.16
2022-11-12T11:35:55.067Z,96679.44
2022-11-12T11:38:41.650Z,96664.41
2022-11-12T11:41:22.178Z,96683.13
2022-11-12T11:44:04.036Z,96682.53
2022-11-12T11:46:50.078Z,96676.44
2022-11-12T11:49:41.014Z,96677.22
2022-11-12T11:52:20.798Z,96680.03
2022-11-12T11:55:06.156Z,96682.31
2022-11-12T11:57:42.284Z,96602.72
2022-11-12T12:00:17.955Z,96667.25
2022-11-12T12:03:07.081Z,96684.03
2022-11-12T12:05:43.060Z,96689.50
2022-11-12T12:08:13.938Z,96651.91
2022-11-12T12:11:07.354Z,96631.41
2022-11-12T12:13:52.845Z,96646.59
2022-11-12T12:16:51.185Z,96665.41
2022-11-12T12:19:35.114Z,96666.94
2022-11-12T12:22:11.011Z,96673.22
2022-11-12T12:24:49.776Z,96626.41
2022-11-12T12:27:23.616Z,96667.34
2022-11-12T12:29:58.669Z,96599.72
2022-11-12T12:32:32.585Z,96663.81
2022-11-12T12:35:08.790Z,96624.78
2022-11-12T12:37:42.447Z,96670.19
2022-11-12T12:40:18.940Z,96672.28
2022-11-12T12:42:53.648Z,96658.22
2022-11-12T12:45:36.289Z,96665.31
2022-11-12T12:48:07.069Z,96665.63
2022-11-12T12:50:37.652Z,96655.41
2022-11-12T12:53:18.287Z,96645.41
2022-11-12T12:55:47.794Z,96674.22
2022-11-12T12:58:23.170Z,96670.97
2022-11-12T13:00:53.176Z,96683.34
2022-11-12T13:03:54.603Z,96676.34
2022-11-12T13:06:29.066Z,96656.44
2022-11-12T13:09:02.580Z,96673.91
2022-11-12T13:12:08.438Z,96647.25
2022-11-12T13:15:08.867Z,96679.34
2022-11-12T13:17:52.237Z,96643.94
2022-11-12T13:20:39.299Z,96666.50
2022-11-12T13:23:12.133Z,96682.28
2022-11-12T13:25:41.467Z,96677.41
2022-11-12T13:28:13.167Z,96680.06
2022-11-12T13:31:02.865Z,96691.84
2022-11-12T13:33:33.785Z,96701.66
2022-11-12T13:36:29.406Z,96695.53
2022-11-12T13:39:15.561Z,96692.34
2022-11-12T13:42:02.267Z,96686.75
2022-11-12T13:44:30.760Z,96687.41
2022-11-12T13:46:58.745Z,96690.91
2022-11-12T13:49:26.739Z,96700.94
2022-11-12T13:51:56.749Z,96539.22
2022-11-12T13:54:33.679Z,96621.59
2022-11-12T13:57:30.726Z,96681.28
2022-11-12T14:00:21.358Z,96677.75
2022-11-12T14:02:54.510Z,96681.13
2022-11-12T14:05:25.295Z,96683.56
2022-11-12T14:08:20.169Z,96687.34
2022-11-12T14:11:04.384Z,96687.41
2022-11-12T14:13:50.915Z,96542.22
2022-11-12T14:16:42.673Z,96681.22
2022-11-12T14:19:26.545Z,96678.31
2022-11-12T14:22:01.780Z,96675.88
2022-11-12T14:24:29.905Z,96677.66
2022-11-12T14:26:57.771Z,96685.03
2022-11-12T14:29:32.934Z,96678.97
2022-11-12T14:32:03.796Z,96685.53
2022-11-12T14:34:33.319Z,96687.91
2022-11-12T14:37:02.315Z,96693.06
2022-11-12T14:39:31.605Z,96688.34
2022-11-12T14:42:01.088Z,96656.72
2022-11-12T14:44:35.908Z,96675.56
2022-11-12T14:47:04.087Z,96689.66
2022-11-12T14:49:43.931Z,96682.78
2022-11-12T14:52:18.140Z,96684.84
2022-11-12T14:54:50.703Z,96686.78
2022-11-12T14:57:21.627Z,96691.91
2022-11-12T14:59:51.104Z,96682.00
2022-11-12T15:02:53.730Z,96691.97
2022-11-12T15:05:15.570Z,96669.22
2022-11-12T15:07:54.908Z,96688.75
2022-11-12T15:10:38.723Z,96680.31
2022-11-12T15:13:09.959Z,96680.97
2022-11-12T15:15:41.516Z,96681.22
2022-11-12T15:18:17.407Z,96676.19
2022-11-12T15:20:45.354Z,96682.03
2022-11-12T15:23:18.939Z,96675.53
2022-11-12T15:25:47.000Z,96686.56
2022-11-12T15:28:22.150Z,96681.97
2022-11-12T15:31:03.526Z,96693.00
2022-11-12T15:33:31.354Z,96693.88
2022-11-12T15:36:00.850Z,96691.19
2022-11-12T15:38:35.793Z,96670.34
2022-11-12T15:41:04.359Z,96693.53
2022-11-12T15:43:36.391Z,96693.25
2022-11-12T15:46:05.639Z,96694.38
2022-11-12T15:48:33.457Z,96692.19
2022-11-12T15:51:02.021Z,96693.25
2022-11-12T15:53:30.616Z,96693.25
2022-11-12T15:55:58.631Z,96697.31
2022-11-12T15:58:36.622Z,96704.59
2022-11-12T16:01:06.481Z,96700.00
2022-11-12T16:03:34.489Z,96709.97
2022-11-12T16:06:08.328Z,96700.81
2022-11-12T16:08:36.722Z,96713.13
2022-11-12T16:11:24.859Z,96707.22
2022-11-12T16:13:52.844Z,96720.16
2022-11-12T16:16:22.071Z,96722.34
2022-11-12T16:18:49.859Z,96718.84
2022-11-12T16:21:20.825Z,96718.25
2022-11-12T16:23:49.005Z,96698.63
2022-11-12T16:26:24.124Z,96719.50
2022-11-12T16:28:51.910Z,96696.97
2022-11-12T16:31:22.275Z,96691.06
2022-11-12T16:33:50.128Z,96703.38
2022-11-12T16:36:18.247Z,96696.09
2022-11-12T16:38:46.638Z,96700.66
2022-11-12T16:41:15.866Z,96692.66
2022-11-12T16:43:43.907Z,96698.03
2022-11-12T16:46:21.617Z,96706.88
2022-11-12T16:48:50.789Z,96705.19
2022-11-12T16:51:19.694Z,96708.19
2022-11-12T16:53:47.962Z,96699.97
2022-11-12T16:56:18.237Z,96689.63
2022-11-12T16:58:46.503Z,96703.31
2022-11-12T17:01:16.745Z,96705.03
2022-11-12T17:03:44.585Z,96694.03
2022-11-12T17:06:13.792Z,96690.25
2022-11-12T17:08:41.628Z,96703.88
2022-11-12T17:11:10.383Z,96706.06
2022-11-12T17:13:39.403Z,96709.16
2022-11-12T17:16:08.503Z,96706.53
2022-11-12T17:18:36.820Z,96697.28
2022-11-12T17:21:09.387Z,96708.50
2022-11-12T17:23:39.158Z,96684.38
2022-11-12T17:26:09.219Z,96708.50
2022-11-12T17:28:37.486Z,96710.06
2022-11-12T17:31:07.642Z,96712.25
2022-11-12T17:33:39.683Z,96717.63
2022-11-12T17:36:10.248Z,96703.72
2022-11-12T17:38:40.347Z,96672.06
2022-11-12T17:41:08.834Z,96713.16
2022-11-12T17:43:37.476Z,96657.06
2022-11-12T17:46:06.960Z,96705.91
2022-11-12T17:48:36.288Z,96661.25
2022-11-12T17:51:09.306Z,96702.91
2022-11-12T17:53:37.600Z,96694.44
2022-11-12T17:56:07.843Z,96710.97
2022-11-12T17:58:35.885Z,96707.44
2022-11-12T18:01:09.463Z,96717.94
2022-11-12T18:03:39.468Z,96718.00
2022-11-12T18:06:08.705Z,96692.34
2022-11-12T18:08:36.520Z,96702.97
2022-11-12T18:11:04.414Z,96666.91
2022-11-12T18:13:33.670Z,96702.41
2022-11-12T18:16:01.754Z,96718.56
2022-11-12T18:18:30.159Z,96696.41
2022-11-12T18:20:58.295Z,96698.63
2022-11-12T18:23:26.389Z,96714.09
2022-11-12T18:25:54.508Z,96739.63
2022-11-12T18:28:22.309Z,96731.03
2022-11-12T18:30:51.527Z,96698.09
2022-11-12T18:33:19.336Z,96724.03
2022-11-12T18:35:47.145Z,96725.09
2022-11-12T18:38:15.078Z,96714.31
2022-11-12T18:40:42.911Z,96709.50
2022-11-12T18:43:11.259Z,96728.50
2022-11-12T18:45:39.355Z,96733.13
2022-11-12T18:48:08.986Z,96728.56
2022-11-12T18:50:36.851Z,96731.59
2022-11-12T18:53:04.672Z,96730.78
2022-11-12T18:55:32.531Z,96739.88
2022-11-12T18:58:00.420Z,96732.06
2022-11-12T19:00:28.324Z,96740.59
2022-11-12T19:02:56.192Z,96724.44
2022-11-12T19:05:25.415Z,96700.00
2022-11-12T19:07:53.571Z,96721.75
2022-11-12T19:10:21.616Z,96740.44
2022-11-12T19:12:49.439Z,96734.13
2022-11-12T19:15:17.387Z,96729.88
2022-11-12T19:17:45.253Z,96726.97
2022-11-12T19:20:13.113Z,96722.09
2022-11-12T19:22:42.293Z,96737.69
2022-11-12T19:25:10.681Z,96739.84
2022-11-12T19:27:38.511Z,96735.03
2022-11-12T19:30:07.286Z,96733.88
2022-11-12T19:32:35.117Z,96680.91
2022-11-12T19:35:03.035Z,96721.28
2022-11-12T19:37:34.598Z,96729.69
2022-11-12T19:40:05.571Z,96733.28
2022-11-12T19:42:33.400Z,96740.59
2022-11-12T19:45:02.823Z,96736.88
2022-11-12T19:47:30.704Z,96741.75
2022-11-12T19:49:58.593Z,96749.28
2022-11-12T19:52:26.498Z,96745.53
2022-11-12T19:54:54.530Z,96747.44
2022-11-12T19:57:23.974Z,96736.69
2022-11-12T19:59:51.842Z,96745.03
2022-11-12T20:02:19.792Z,96654.03
2022-11-12T20:04:47.608Z,96724.16
2022-11-12T20:07:15.495Z,96738.78
2022-11-12T20:09:44.596Z,96743.56
2022-11-12T20:12:12.413Z,96748.16
2022-11-12T20:14:41.795Z,96747.28
2022-11-12T20:17:09.640Z,96756.09
2022-11-12T20:19:37.482Z,96746.34
2022-11-12T20:22:05.351Z,96741.53
2022-11-12T20:24:33.359Z,96712.38
2022-11-12T20:27:01.220Z,96745.44
2022-11-12T20:29:29.026Z,96751.09
2022-11-12T20:31:58.284Z,96763.91
2022-11-12T20:34:27.057Z,96766.84
2022-11-12T20:36:55.667Z,96759.28
2022-11-12T20:39:23.521Z,96761.41
2022-11-12T20:41:51.675Z,96754.66
2022-11-12T20:44:19.522Z,96748.16
2022-11-12T20:46:47.364Z,96746.28
2022-11-12T20:49:16.566Z,96755.16
2022-11-12T20:51:44.387Z,96755.66
2022-11-12T20:54:12.319Z,96750.78
2022-11-12T20:56:41.228Z,96752.69
2022-11-12T20:59:09.354Z,96755.09
2022-11-12T21:01:37.702Z,96747.53
2022-11-12T21:04:06.144Z,96741.91
2022-11-12T21:06:36.966Z,96745.91
2022-11-12T21:09:05.535Z,96717.41
2022-11-12T21:11:33.412Z,96750.22
2022-11-12T21:14:01.605Z,96758.56
2022-11-12T21:16:29.501Z,96753.50
2022-11-12T21:19:01.127Z,96754.84
2022-11-12T21:21:31.562Z,96746.84
2022-11-12T21:24:04.805Z,96756.22
2022-11-12T21:26:33.098Z,96752.22
2022-11-12T21:29:00.984Z,96758.97
2022-11-12T21:31:30.818Z,96733.56
2022-11-12T21:34:00.371Z,96752.53
2022-11-12T21:36:29.367Z,96761.63
2022-11-12T21:38:57.355Z,96734.28
2022-11-12T21:41:28.425Z,96765.13
2022-11-12T21:43:56.466Z,96758.94
2022-11-12T21:46:26.170Z,96762.72
2022-11-12T21:48:55.480Z,96713.00
2022-11-12T21:51:24.968Z,96763.28
2022-11-12T21:53:55.656Z,96758.97
2022-11-12T21:56:24.374Z,96750.94
2022-11-12T21:58:57.063Z,96751.75
2022-11-12T22:01:26.069Z,96758.41
2022-11-12T22:03:55.382Z,96759.22
2022-11-12T22:06:25.744Z,96735.97
2022-11-12T22:08:54.622Z,96759.44
2022-11-12T22:11:22.834Z,96743.97
2022-11-12T22:13:51.055Z,96757.84
2022-11-12T22:16:22.019Z,96766.44
2022-11-12T22:18:51.582Z,96754.84
2022-11-12T22:21:21.624Z,96760.50
2022-11-12T22:23:49.960Z,96756.69
2022-11-12T22:26:21.921Z,96755.66
2022-11-12T22:28:50.147Z,96743.28
2022-11-12T22:31:21.195Z,96745.31
2022-11-12T22:33:49.675Z,96738.00
2022-11-12T22:36:20.343Z,96741.25
2022-11-12T22:38:49.460Z,96752.47
2022-11-12T22:41:19.293Z,96753.25
2022-11-12T22:43:48.572Z,96745.97
2022-11-12T22:46:17.718Z,96755.63
2022-11-12T22:48:47.107Z,96749.78
2022-11-12T22:51:16.718Z,96755.88
2022-11-12T22:53:44.676Z,96749.72
2022-11-12T22:56:15.577Z,96750.50
2022-11-12T22:58:45.452Z,96741.91
2022-11-12T23:01:20.110Z,96745.91
2022-11-12T23:03:50.314Z,96749.13
2022-11-12T23:06:19.315Z,96701.84
2022-11-12T23:08:47.459Z,96752.69
2022-11-12T23:11:18.456Z,96743.28
2022-11-12T23:13:46.885Z,96731.59
2022-11-12T23:16:17.354Z,96738.50
2022-11-12T23:18:45.805Z,96737.69
2022-11-12T23:21:17.140Z,96743.88
2022-11-12T23:23:45.035Z,96737.38
2022-11-12T23:26:15.643Z,96734.69
2022-11-12T23:28:43.593Z,96734.13
2022-11-12T23:31:13.753Z,96736.31
2022-11-12T23:33:45.490Z,96732.88
2022-11-12T23:36:15.279Z,96742.88
2022-11-12T23:38:43.930Z,96730.00
2022-11-12T23:41:13.294Z,96728.41
2022-11-12T23:43:41.128Z,96722.81
2022-11-12T23:46:08.964Z,96719.31
2022-11-12T23:48:36.866Z,96728.97
2022-11-12T23:51:07.058Z,96725.75
2022-11-12T23:53:37.120Z,96724.94
2022-11-12T23:56:06.433Z,96718.72
2022-11-12T23:58:34.426Z,96689.34
